sensor_id;sensor_type;location;lat;lon;timestamp;temperature;humidity
70214;DHT22;60138;55.808;37.078;2024-01-27T00:00:51;-2.08;84.55
70214;DHT22;60138;55.808;37.078;2024-01-27T00:03:17;-2.09;84.52
70214;DHT22;60138;55.808;37.078;2024-01-27T00:05:42;-2.09;84.45
70214;DHT22;60138;55.808;37.078;2024-01-27T00:08:08;-2.12;84.39
70214;DHT22;60138;55.808;37.078;2024-01-27T00:10:34;-2.17;84.36
70214;DHT22;60138;55.808;37.078;2024-01-27T00:12:59;-2.22;84.36
70214;DHT22;60138;55.808;37.078;2024-01-27T00:15:25;-2.22;84.42
70214;DHT22;60138;55.808;37.078;2024-01-27T00:17:51;-2.23;84.32
70214;DHT22;60138;55.808;37.078;2024-01-27T00:20:17;-2.28;84.32
70214;DHT22;60138;55.808;37.078;2024-01-27T00:22:42;-2.30;84.26
70214;DHT22;60138;55.808;37.078;2024-01-27T00:25:08;-2.30;84.24
70214;DHT22;60138;55.808;37.078;2024-01-27T00:27:34;-2.34;84.26
70214;DHT22;60138;55.808;37.078;2024-01-27T00:29:59;-2.35;84.29
70214;DHT22;60138;55.808;37.078;2024-01-27T00:32:25;-2.34;84.27
70214;DHT22;60138;55.808;37.078;2024-01-27T00:34:51;-2.33;84.23
70214;DHT22;60138;55.808;37.078;2024-01-27T00:37:17;-2.34;84.23
70214;DHT22;60138;55.808;37.078;2024-01-27T00:39:42;-2.35;84.22
70214;DHT22;60138;55.808;37.078;2024-01-27T00:42:08;-2.35;84.15
70214;DHT22;60138;55.808;37.078;2024-01-27T00:44:34;-2.38;84.15
70214;DHT22;60138;55.808;37.078;2024-01-27T00:47:00;-2.44;84.16
70214;DHT22;60138;55.808;37.078;2024-01-27T00:49:25;-2.46;84.13
70214;DHT22;60138;55.808;37.078;2024-01-27T00:51:51;-2.48;84.11
70214;DHT22;60138;55.808;37.078;2024-01-27T00:54:17;-2.53;84.16
70214;DHT22;60138;55.808;37.078;2024-01-27T00:56:42;-2.53;84.13
70214;DHT22;60138;55.808;37.078;2024-01-27T00:59:08;-2.53;84.10
70214;DHT22;60138;55.808;37.078;2024-01-27T01:01:34;-2.51;84.10
70214;DHT22;60138;55.808;37.078;2024-01-27T01:04:00;-2.49;84.06
70214;DHT22;60138;55.808;37.078;2024-01-27T01:06:25;-2.50;84.07
70214;DHT22;60138;55.808;37.078;2024-01-27T01:08:51;-2.48;84.07
70214;DHT22;60138;55.808;37.078;2024-01-27T01:11:17;-2.52;84.06
70214;DHT22;60138;55.808;37.078;2024-01-27T01:13:43;-2.54;84.08
70214;DHT22;60138;55.808;37.078;2024-01-27T01:16:08;-2.57;84.08
70214;DHT22;60138;55.808;37.078;2024-01-27T01:18:34;-2.59;84.10
70214;DHT22;60138;55.808;37.078;2024-01-27T01:21:00;-2.62;84.03
70214;DHT22;60138;55.808;37.078;2024-01-27T01:23:25;-2.63;84.07
70214;DHT22;60138;55.808;37.078;2024-01-27T01:25:51;-2.65;84.12
70214;DHT22;60138;55.808;37.078;2024-01-27T01:28:17;-2.69;84.10
70214;DHT22;60138;55.808;37.078;2024-01-27T01:30:44;-2.73;84.11
70214;DHT22;60138;55.808;37.078;2024-01-27T01:33:10;-2.72;84.05
70214;DHT22;60138;55.808;37.078;2024-01-27T01:35:36;-2.72;83.99
70214;DHT22;60138;55.808;37.078;2024-01-27T01:38:02;-2.73;84.00
70214;DHT22;60138;55.808;37.078;2024-01-27T01:40:28;-2.72;84.05
70214;DHT22;60138;55.808;37.078;2024-01-27T01:42:53;-2.74;84.01
70214;DHT22;60138;55.808;37.078;2024-01-27T01:45:19;-2.73;83.97
70214;DHT22;60138;55.808;37.078;2024-01-27T01:47:45;-2.74;83.96
70214;DHT22;60138;55.808;37.078;2024-01-27T01:50:11;-2.72;83.97
70214;DHT22;60138;55.808;37.078;2024-01-27T01:52:38;-2.73;83.96
70214;DHT22;60138;55.808;37.078;2024-01-27T01:55:04;-2.73;84.14
70214;DHT22;60138;55.808;37.078;2024-01-27T01:57:31;-2.77;84.10
70214;DHT22;60138;55.808;37.078;2024-01-27T01:59:57;-2.82;84.08
70214;DHT22;60138;55.808;37.078;2024-01-27T02:02:23;-2.83;84.06
70214;DHT22;60138;55.808;37.078;2024-01-27T02:04:49;-2.81;84.04
70214;DHT22;60138;55.808;37.078;2024-01-27T02:07:14;-2.79;83.94
70214;DHT22;60138;55.808;37.078;2024-01-27T02:09:40;-2.78;83.92
70214;DHT22;60138;55.808;37.078;2024-01-27T02:12:06;-2.80;83.87
70214;DHT22;60138;55.808;37.078;2024-01-27T02:14:32;-2.81;83.87
70214;DHT22;60138;55.808;37.078;2024-01-27T02:16:58;-2.79;83.89
70214;DHT22;60138;55.808;37.078;2024-01-27T02:19:24;-2.80;83.90
70214;DHT22;60138;55.808;37.078;2024-01-27T02:21:50;-2.81;83.86
70214;DHT22;60138;55.808;37.078;2024-01-27T02:24:16;-2.79;83.89
70214;DHT22;60138;55.808;37.078;2024-01-27T02:26:41;-2.80;83.81
70214;DHT22;60138;55.808;37.078;2024-01-27T02:29:07;-2.82;83.83
70214;DHT22;60138;55.808;37.078;2024-01-27T02:31:33;-2.82;83.87
70214;DHT22;60138;55.808;37.078;2024-01-27T02:33:59;-2.84;83.87
70214;DHT22;60138;55.808;37.078;2024-01-27T02:36:24;-2.90;83.90
70214;DHT22;60138;55.808;37.078;2024-01-27T02:38:50;-2.91;83.90
70214;DHT22;60138;55.808;37.078;2024-01-27T02:41:16;-2.91;83.96
70214;DHT22;60138;55.808;37.078;2024-01-27T02:43:42;-2.91;83.91
70214;DHT22;60138;55.808;37.078;2024-01-27T02:46:09;-2.92;83.96
70214;DHT22;60138;55.808;37.078;2024-01-27T02:48:34;-2.95;84.05
70214;DHT22;60138;55.808;37.078;2024-01-27T02:51:03;-2.94;83.97
70214;DHT22;60138;55.808;37.078;2024-01-27T02:53:29;-2.91;83.92
70214;DHT22;60138;55.808;37.078;2024-01-27T02:55:55;-2.91;83.89
70214;DHT22;60138;55.808;37.078;2024-01-27T02:58:21;-2.93;83.87
70214;DHT22;60138;55.808;37.078;2024-01-27T03:00:46;-2.94;83.79
70214;DHT22;60138;55.808;37.078;2024-01-27T03:03:12;-2.94;83.81
70214;DHT22;60138;55.808;37.078;2024-01-27T03:05:38;-2.94;83.81
70214;DHT22;60138;55.808;37.078;2024-01-27T03:08:04;-2.94;83.80
70214;DHT22;60138;55.808;37.078;2024-01-27T03:10:30;-2.95;83.79
70214;DHT22;60138;55.808;37.078;2024-01-27T03:12:55;-2.92;83.82
70214;DHT22;60138;55.808;37.078;2024-01-27T03:15:21;-2.94;83.75
70214;DHT22;60138;55.808;37.078;2024-01-27T03:17:47;-2.98;83.74
70214;DHT22;60138;55.808;37.078;2024-01-27T03:20:13;-2.98;83.76
70214;DHT22;60138;55.808;37.078;2024-01-27T03:22:39;-3.04;83.78
70214;DHT22;60138;55.808;37.078;2024-01-27T03:25:05;-3.07;83.82
70214;DHT22;60138;55.808;37.078;2024-01-27T03:27:31;-3.07;83.84
70214;DHT22;60138;55.808;37.078;2024-01-27T03:30:00;-3.06;83.82
70214;DHT22;60138;55.808;37.078;2024-01-27T03:32:26;-3.04;83.81
70214;DHT22;60138;55.808;37.078;2024-01-27T03:34:51;-3.06;83.77
70214;DHT22;60138;55.808;37.078;2024-01-27T03:37:17;-3.08;83.78
70214;DHT22;60138;55.808;37.078;2024-01-27T03:39:43;-3.06;83.78
70214;DHT22;60138;55.808;37.078;2024-01-27T03:42:09;-3.04;83.73
70214;DHT22;60138;55.808;37.078;2024-01-27T03:44:34;-3.06;83.74
70214;DHT22;60138;55.808;37.078;2024-01-27T03:47:00;-3.06;83.73
70214;DHT22;60138;55.808;37.078;2024-01-27T03:49:26;-3.10;83.76
70214;DHT22;60138;55.808;37.078;2024-01-27T03:51:51;-3.12;83.74
70214;DHT22;60138;55.808;37.078;2024-01-27T03:54:17;-3.16;83.75
70214;DHT22;60138;55.808;37.078;2024-01-27T03:56:43;-3.19;83.74
70214;DHT22;60138;55.808;37.078;2024-01-27T03:59:09;-3.17;83.83
70214;DHT22;60138;55.808;37.078;2024-01-27T04:01:35;-3.18;83.83
70214;DHT22;60138;55.808;37.078;2024-01-27T04:04:01;-3.17;83.84
70214;DHT22;60138;55.808;37.078;2024-01-27T04:06:26;-3.13;83.88
70214;DHT22;60138;55.808;37.078;2024-01-27T04:08:52;-3.12;83.84
70214;DHT22;60138;55.808;37.078;2024-01-27T04:11:21;-3.10;83.88
70214;DHT22;60138;55.808;37.078;2024-01-27T04:13:48;-3.10;83.83
70214;DHT22;60138;55.808;37.078;2024-01-27T04:16:14;-3.10;83.81
70214;DHT22;60138;55.808;37.078;2024-01-27T04:18:41;-3.12;83.90
70214;DHT22;60138;55.808;37.078;2024-01-27T04:21:07;-3.12;83.90
70214;DHT22;60138;55.808;37.078;2024-01-27T04:23:33;-3.12;83.80
70214;DHT22;60138;55.808;37.078;2024-01-27T04:25:59;-3.11;83.81
70214;DHT22;60138;55.808;37.078;2024-01-27T04:28:24;-3.11;83.70
70214;DHT22;60138;55.808;37.078;2024-01-27T04:30:50;-3.12;83.69
70214;DHT22;60138;55.808;37.078;2024-01-27T04:33:16;-3.10;83.73
70214;DHT22;60138;55.808;37.078;2024-01-27T04:35:42;-3.10;83.75
70214;DHT22;60138;55.808;37.078;2024-01-27T04:38:10;-3.11;83.72
70214;DHT22;60138;55.808;37.078;2024-01-27T04:40:36;-3.10;83.70
70214;DHT22;60138;55.808;37.078;2024-01-27T04:43:02;-3.11;83.67
70214;DHT22;60138;55.808;37.078;2024-01-27T04:45:28;-3.11;83.67
70214;DHT22;60138;55.808;37.078;2024-01-27T04:47:54;-3.15;83.68
70214;DHT22;60138;55.808;37.078;2024-01-27T04:50:20;-3.15;83.71
70214;DHT22;60138;55.808;37.078;2024-01-27T04:52:46;-3.15;83.71
70214;DHT22;60138;55.808;37.078;2024-01-27T04:55:12;-3.16;83.65
70214;DHT22;60138;55.808;37.078;2024-01-27T04:57:38;-3.15;83.68
70214;DHT22;60138;55.808;37.078;2024-01-27T05:00:04;-3.13;83.63
70214;DHT22;60138;55.808;37.078;2024-01-27T05:02:30;-3.16;83.63
70214;DHT22;60138;55.808;37.078;2024-01-27T05:04:55;-3.16;83.68
70214;DHT22;60138;55.808;37.078;2024-01-27T05:07:21;-3.13;83.58
70214;DHT22;60138;55.808;37.078;2024-01-27T05:09:47;-3.15;83.59
70214;DHT22;60138;55.808;37.078;2024-01-27T05:12:13;-3.13;83.61
70214;DHT22;60138;55.808;37.078;2024-01-27T05:14:43;-3.13;83.61
70214;DHT22;60138;55.808;37.078;2024-01-27T05:17:09;-3.16;83.58
70214;DHT22;60138;55.808;37.078;2024-01-27T05:19:34;-3.16;83.64
70214;DHT22;60138;55.808;37.078;2024-01-27T05:22:00;-3.16;83.63
70214;DHT22;60138;55.808;37.078;2024-01-27T05:24:26;-3.16;83.64
70214;DHT22;60138;55.808;37.078;2024-01-27T05:26:52;-3.15;83.61
70214;DHT22;60138;55.808;37.078;2024-01-27T05:29:17;-3.13;83.63
70214;DHT22;60138;55.808;37.078;2024-01-27T05:31:47;-3.11;83.64
70214;DHT22;60138;55.808;37.078;2024-01-27T05:34:13;-3.12;83.68
70214;DHT22;60138;55.808;37.078;2024-01-27T05:36:39;-3.18;83.68
70214;DHT22;60138;55.808;37.078;2024-01-27T05:39:05;-3.17;83.71
70214;DHT22;60138;55.808;37.078;2024-01-27T05:41:30;-3.19;83.65
70214;DHT22;60138;55.808;37.078;2024-01-27T05:43:56;-3.17;83.68
70214;DHT22;60138;55.808;37.078;2024-01-27T05:46:25;-3.13;83.75
70214;DHT22;60138;55.808;37.078;2024-01-27T05:48:51;-3.11;83.65
70214;DHT22;60138;55.808;37.078;2024-01-27T05:51:17;-3.09;83.69
70214;DHT22;60138;55.808;37.078;2024-01-27T05:53:43;-3.12;83.68
70214;DHT22;60138;55.808;37.078;2024-01-27T05:56:09;-3.10;83.71
70214;DHT22;60138;55.808;37.078;2024-01-27T05:58:34;-3.07;83.73
70214;DHT22;60138;55.808;37.078;2024-01-27T06:01:00;-3.06;83.74
70214;DHT22;60138;55.808;37.078;2024-01-27T06:03:26;-3.06;83.78
70214;DHT22;60138;55.808;37.078;2024-01-27T06:05:52;-3.05;83.74
70214;DHT22;60138;55.808;37.078;2024-01-27T06:08:17;-3.03;83.73
70214;DHT22;60138;55.808;37.078;2024-01-27T06:10:43;-3.01;83.75
70214;DHT22;60138;55.808;37.078;2024-01-27T06:13:09;-2.98;83.73
70214;DHT22;60138;55.808;37.078;2024-01-27T06:15:35;-2.97;83.72
70214;DHT22;60138;55.808;37.078;2024-01-27T06:18:00;-3.01;83.75
70214;DHT22;60138;55.808;37.078;2024-01-27T06:20:26;-2.97;83.77
70214;DHT22;60138;55.808;37.078;2024-01-27T06:22:52;-2.97;83.72
70214;DHT22;60138;55.808;37.078;2024-01-27T06:25:17;-2.96;83.74
70214;DHT22;60138;55.808;37.078;2024-01-27T06:27:43;-2.96;83.72
70214;DHT22;60138;55.808;37.078;2024-01-27T06:30:10;-2.97;83.66
70214;DHT22;60138;55.808;37.078;2024-01-27T06:32:37;-2.98;83.70
70214;DHT22;60138;55.808;37.078;2024-01-27T06:35:03;-3.01;83.72
70214;DHT22;60138;55.808;37.078;2024-01-27T06:37:31;-3.00;83.69
70214;DHT22;60138;55.808;37.078;2024-01-27T06:39:56;-3.00;83.65
70214;DHT22;60138;55.808;37.078;2024-01-27T06:42:22;-3.00;83.72
70214;DHT22;60138;55.808;37.078;2024-01-27T06:44:48;-3.01;83.63
70214;DHT22;60138;55.808;37.078;2024-01-27T06:47:14;-2.95;83.63
70214;DHT22;60138;55.808;37.078;2024-01-27T06:49:39;-2.95;83.64
70214;DHT22;60138;55.808;37.078;2024-01-27T06:52:05;-2.93;83.57
70214;DHT22;60138;55.808;37.078;2024-01-27T06:54:31;-2.93;83.61
70214;DHT22;60138;55.808;37.078;2024-01-27T06:56:59;-2.89;83.55
70214;DHT22;60138;55.808;37.078;2024-01-27T06:59:25;-2.89;83.56
70214;DHT22;60138;55.808;37.078;2024-01-27T07:01:51;-2.84;83.52
70214;DHT22;60138;55.808;37.078;2024-01-27T07:04:17;-2.83;83.58
70214;DHT22;60138;55.808;37.078;2024-01-27T07:06:43;-2.81;83.59
70214;DHT22;60138;55.808;37.078;2024-01-27T07:09:09;-2.76;83.61
70214;DHT22;60138;55.808;37.078;2024-01-27T07:11:38;-2.77;83.52
70214;DHT22;60138;55.808;37.078;2024-01-27T07:14:04;-2.78;83.53
70214;DHT22;60138;55.808;37.078;2024-01-27T07:16:30;-2.79;83.61
70214;DHT22;60138;55.808;37.078;2024-01-27T07:18:56;-2.76;83.58
70214;DHT22;60138;55.808;37.078;2024-01-27T07:21:21;-2.75;83.58
70214;DHT22;60138;55.808;37.078;2024-01-27T07:23:47;-2.74;83.65
70214;DHT22;60138;55.808;37.078;2024-01-27T07:26:13;-2.73;83.68
70214;DHT22;60138;55.808;37.078;2024-01-27T07:28:38;-2.69;83.70
70214;DHT22;60138;55.808;37.078;2024-01-27T07:31:07;-2.67;83.66
70214;DHT22;60138;55.808;37.078;2024-01-27T07:33:33;-2.73;83.55
70214;DHT22;60138;55.808;37.078;2024-01-27T07:35:59;-2.71;83.61
70214;DHT22;60138;55.808;37.078;2024-01-27T07:38:25;-2.67;83.61
70214;DHT22;60138;55.808;37.078;2024-01-27T07:40:50;-2.61;83.62
70214;DHT22;60138;55.808;37.078;2024-01-27T07:43:16;-2.59;83.57
70214;DHT22;60138;55.808;37.078;2024-01-27T07:45:42;-2.56;83.55
70214;DHT22;60138;55.808;37.078;2024-01-27T07:48:07;-2.48;83.56
70214;DHT22;60138;55.808;37.078;2024-01-27T07:50:33;-2.44;83.54
70214;DHT22;60138;55.808;37.078;2024-01-27T07:52:59;-2.54;83.54
70214;DHT22;60138;55.808;37.078;2024-01-27T07:55:25;-2.50;83.56
70214;DHT22;60138;55.808;37.078;2024-01-27T07:57:50;-2.51;83.58
70214;DHT22;60138;55.808;37.078;2024-01-27T08:00:16;-2.49;83.63
70214;DHT22;60138;55.808;37.078;2024-01-27T08:02:42;-2.45;83.58
70214;DHT22;60138;55.808;37.078;2024-01-27T08:05:08;-2.42;83.53
70214;DHT22;60138;55.808;37.078;2024-01-27T08:07:34;-2.36;83.61
70214;DHT22;60138;55.808;37.078;2024-01-27T08:10:00;-2.36;83.58
70214;DHT22;60138;55.808;37.078;2024-01-27T08:12:25;-2.33;83.55
70214;DHT22;60138;55.808;37.078;2024-01-27T08:14:51;-2.29;83.51
70214;DHT22;60138;55.808;37.078;2024-01-27T08:17:17;-2.33;83.61
70214;DHT22;60138;55.808;37.078;2024-01-27T08:19:42;-2.27;83.68
70214;DHT22;60138;55.808;37.078;2024-01-27T08:22:08;-2.16;83.65
70214;DHT22;60138;55.808;37.078;2024-01-27T08:24:34;-2.10;83.70
70214;DHT22;60138;55.808;37.078;2024-01-27T08:27:00;-2.03;83.68
70214;DHT22;60138;55.808;37.078;2024-01-27T08:29:26;-1.94;83.70
70214;DHT22;60138;55.808;37.078;2024-01-27T08:31:51;-1.91;83.68
70214;DHT22;60138;55.808;37.078;2024-01-27T08:34:17;-1.86;83.70
70214;DHT22;60138;55.808;37.078;2024-01-27T08:36:43;-1.83;83.67
70214;DHT22;60138;55.808;37.078;2024-01-27T08:39:08;-1.82;83.70
70214;DHT22;60138;55.808;37.078;2024-01-27T08:41:34;-1.76;83.71
70214;DHT22;60138;55.808;37.078;2024-01-27T08:44:00;-1.72;83.71
70214;DHT22;60138;55.808;37.078;2024-01-27T08:46:26;-1.72;83.68
70214;DHT22;60138;55.808;37.078;2024-01-27T08:48:51;-1.71;83.67
70214;DHT22;60138;55.808;37.078;2024-01-27T08:51:17;-1.70;83.68
70214;DHT22;60138;55.808;37.078;2024-01-27T08:53:44;-1.72;83.70
70214;DHT22;60138;55.808;37.078;2024-01-27T08:56:09;-1.72;83.74
70214;DHT22;60138;55.808;37.078;2024-01-27T08:58:35;-1.73;83.71
70214;DHT22;60138;55.808;37.078;2024-01-27T09:01:01;-1.73;83.68
70214;DHT22;60138;55.808;37.078;2024-01-27T09:03:27;-1.71;83.70
70214;DHT22;60138;55.808;37.078;2024-01-27T09:05:52;-1.70;83.74
70214;DHT22;60138;55.808;37.078;2024-01-27T09:08:18;-1.69;83.78
70214;DHT22;60138;55.808;37.078;2024-01-27T09:10:43;-1.67;83.74
70214;DHT22;60138;55.808;37.078;2024-01-27T09:13:09;-1.69;83.75
70214;DHT22;60138;55.808;37.078;2024-01-27T09:15:35;-1.71;83.65
70214;DHT22;60138;55.808;37.078;2024-01-27T09:18:01;-1.75;83.64
70214;DHT22;60138;55.808;37.078;2024-01-27T09:20:26;-1.75;83.66
70214;DHT22;60138;55.808;37.078;2024-01-27T09:22:52;-1.76;83.73
70214;DHT22;60138;55.808;37.078;2024-01-27T09:25:18;-1.77;83.70
70214;DHT22;60138;55.808;37.078;2024-01-27T09:27:44;-1.75;83.62
70214;DHT22;60138;55.808;37.078;2024-01-27T09:30:10;-1.70;83.68
70214;DHT22;60138;55.808;37.078;2024-01-27T09:32:39;-1.62;83.70
70214;DHT22;60138;55.808;37.078;2024-01-27T09:35:10;-1.59;83.65
70214;DHT22;60138;55.808;37.078;2024-01-27T09:37:42;-1.55;83.69
70214;DHT22;60138;55.808;37.078;2024-01-27T09:40:20;-1.50;83.69
70214;DHT22;60138;55.808;37.078;2024-01-27T09:42:52;-1.49;83.70
70214;DHT22;60138;55.808;37.078;2024-01-27T09:45:21;-1.45;83.69
70214;DHT22;60138;55.808;37.078;2024-01-27T09:48:06;-1.44;83.59
70214;DHT22;60138;55.808;37.078;2024-01-27T09:50:34;-1.42;83.65
70214;DHT22;60138;55.808;37.078;2024-01-27T09:53:00;-1.41;83.70
70214;DHT22;60138;55.808;37.078;2024-01-27T09:55:26;-1.39;83.70
70214;DHT22;60138;55.808;37.078;2024-01-27T09:57:51;-1.39;83.65
70214;DHT22;60138;55.808;37.078;2024-01-27T10:00:19;-1.39;83.67
70214;DHT22;60138;55.808;37.078;2024-01-27T10:02:46;-1.42;83.60
70214;DHT22;60138;55.808;37.078;2024-01-27T10:05:12;-1.52;83.54
70214;DHT22;60138;55.808;37.078;2024-01-27T10:07:39;-1.54;83.55
70214;DHT22;60138;55.808;37.078;2024-01-27T10:10:05;-1.48;83.64
70214;DHT22;60138;55.808;37.078;2024-01-27T10:12:32;-1.54;83.61
70214;DHT22;60138;55.808;37.078;2024-01-27T10:14:58;-1.54;83.74
70214;DHT22;60138;55.808;37.078;2024-01-27T10:17:25;-1.45;83.74
70214;DHT22;60138;55.808;37.078;2024-01-27T10:20:01;-1.39;83.68
70214;DHT22;60138;55.808;37.078;2024-01-27T10:22:27;-1.40;83.66
70214;DHT22;60138;55.808;37.078;2024-01-27T10:24:53;-1.43;83.70
70214;DHT22;60138;55.808;37.078;2024-01-27T10:27:19;-1.40;83.67
70214;DHT22;60138;55.808;37.078;2024-01-27T10:29:54;-1.43;83.60
70214;DHT22;60138;55.808;37.078;2024-01-27T10:32:21;-1.40;83.74
70214;DHT22;60138;55.808;37.078;2024-01-27T10:34:46;-1.39;83.68
70214;DHT22;60138;55.808;37.078;2024-01-27T10:37:12;-1.42;83.58
70214;DHT22;60138;55.808;37.078;2024-01-27T10:39:38;-1.43;83.64
70214;DHT22;60138;55.808;37.078;2024-01-27T10:42:04;-1.44;83.61
70214;DHT22;60138;55.808;37.078;2024-01-27T10:44:31;-1.54;83.70
70214;DHT22;60138;55.808;37.078;2024-01-27T10:47:01;-1.59;83.61
70214;DHT22;60138;55.808;37.078;2024-01-27T10:49:28;-1.62;83.61
70214;DHT22;60138;55.808;37.078;2024-01-27T10:51:56;-1.60;83.67
70214;DHT22;60138;55.808;37.078;2024-01-27T10:54:25;-1.53;83.69
70214;DHT22;60138;55.808;37.078;2024-01-27T10:56:56;-1.43;83.68
70214;DHT22;60138;55.808;37.078;2024-01-27T10:59:22;-1.44;83.68
70214;DHT22;60138;55.808;37.078;2024-01-27T11:01:52;-1.41;83.69
70214;DHT22;60138;55.808;37.078;2024-01-27T11:04:19;-1.33;83.71
70214;DHT22;60138;55.808;37.078;2024-01-27T11:06:49;-1.27;83.68
70214;DHT22;60138;55.808;37.078;2024-01-27T11:09:15;-1.34;83.76
70214;DHT22;60138;55.808;37.078;2024-01-27T11:11:42;-1.38;83.82
70214;DHT22;60138;55.808;37.078;2024-01-27T11:14:10;-1.42;83.60
70214;DHT22;60138;55.808;37.078;2024-01-27T11:16:36;-1.47;83.55
70214;DHT22;60138;55.808;37.078;2024-01-27T11:19:02;-1.45;83.64
70214;DHT22;60138;55.808;37.078;2024-01-27T11:21:28;-1.50;83.61
70214;DHT22;60138;55.808;37.078;2024-01-27T11:23:53;-1.54;83.64
70214;DHT22;60138;55.808;37.078;2024-01-27T11:26:21;-1.56;83.75
70214;DHT22;60138;55.808;37.078;2024-01-27T11:28:50;-1.44;83.80
70214;DHT22;60138;55.808;37.078;2024-01-27T11:31:19;-1.35;83.77
70214;DHT22;60138;55.808;37.078;2024-01-27T11:33:50;-1.28;83.78
70214;DHT22;60138;55.808;37.078;2024-01-27T11:36:21;-1.25;83.77
70214;DHT22;60138;55.808;37.078;2024-01-27T11:38:47;-1.25;83.74
70214;DHT22;60138;55.808;37.078;2024-01-27T11:41:26;-1.29;83.69
70214;DHT22;60138;55.808;37.078;2024-01-27T11:43:53;-1.26;83.70
70214;DHT22;60138;55.808;37.078;2024-01-27T11:46:19;-1.26;83.71
70214;DHT22;60138;55.808;37.078;2024-01-27T11:48:48;-1.24;83.71
70214;DHT22;60138;55.808;37.078;2024-01-27T11:51:24;-1.23;83.78
70214;DHT22;60138;55.808;37.078;2024-01-27T11:53:53;-1.27;83.77
70214;DHT22;60138;55.808;37.078;2024-01-27T11:56:19;-1.27;83.80
70214;DHT22;60138;55.808;37.078;2024-01-27T11:58:50;-1.25;83.83
70214;DHT22;60138;55.808;37.078;2024-01-27T12:01:19;-1.28;83.74
70214;DHT22;60138;55.808;37.078;2024-01-27T12:03:48;-1.38;83.72
70214;DHT22;60138;55.808;37.078;2024-01-27T12:06:14;-1.49;83.77
70214;DHT22;60138;55.808;37.078;2024-01-27T12:08:41;-1.63;83.81
70214;DHT22;60138;55.808;37.078;2024-01-27T12:11:07;-1.75;83.71
70214;DHT22;60138;55.808;37.078;2024-01-27T12:13:32;-1.85;83.70
70214;DHT22;60138;55.808;37.078;2024-01-27T12:15:58;-1.90;83.66
70214;DHT22;60138;55.808;37.078;2024-01-27T12:18:24;-2.01;83.68
70214;DHT22;60138;55.808;37.078;2024-01-27T12:20:55;-2.06;83.61
70214;DHT22;60138;55.808;37.078;2024-01-27T12:23:20;-2.13;83.73
70214;DHT22;60138;55.808;37.078;2024-01-27T12:25:53;-2.17;83.78
70214;DHT22;60138;55.808;37.078;2024-01-27T12:28:19;-2.21;83.70
70214;DHT22;60138;55.808;37.078;2024-01-27T12:30:45;-2.19;83.78
70214;DHT22;60138;55.808;37.078;2024-01-27T12:33:13;-2.19;83.75
70214;DHT22;60138;55.808;37.078;2024-01-27T12:35:41;-2.15;83.84
70214;DHT22;60138;55.808;37.078;2024-01-27T12:38:07;-2.15;83.87
70214;DHT22;60138;55.808;37.078;2024-01-27T12:40:32;-2.15;83.86
70214;DHT22;60138;55.808;37.078;2024-01-27T12:42:58;-2.17;83.94
70214;DHT22;60138;55.808;37.078;2024-01-27T12:45:24;-2.23;83.77
70214;DHT22;60138;55.808;37.078;2024-01-27T12:47:50;-2.28;83.80
70214;DHT22;60138;55.808;37.078;2024-01-27T12:50:15;-2.32;83.86
70214;DHT22;60138;55.808;37.078;2024-01-27T12:52:41;-2.31;83.84
70214;DHT22;60138;55.808;37.078;2024-01-27T12:55:07;-2.33;83.71
70214;DHT22;60138;55.808;37.078;2024-01-27T12:57:33;-2.35;83.80
70214;DHT22;60138;55.808;37.078;2024-01-27T12:59:59;-2.37;83.74
70214;DHT22;60138;55.808;37.078;2024-01-27T13:02:25;-2.38;83.84
70214;DHT22;60138;55.808;37.078;2024-01-27T13:04:50;-2.38;83.84
70214;DHT22;60138;55.808;37.078;2024-01-27T13:07:16;-2.37;83.85
70214;DHT22;60138;55.808;37.078;2024-01-27T13:09:42;-2.37;83.84
70214;DHT22;60138;55.808;37.078;2024-01-27T13:12:08;-2.39;83.78
70214;DHT22;60138;55.808;37.078;2024-01-27T13:14:33;-2.46;83.74
70214;DHT22;60138;55.808;37.078;2024-01-27T13:16:59;-2.48;83.84
70214;DHT22;60138;55.808;37.078;2024-01-27T13:19:27;-2.47;83.86
70214;DHT22;60138;55.808;37.078;2024-01-27T13:21:53;-2.48;83.86
70214;DHT22;60138;55.808;37.078;2024-01-27T13:24:18;-2.50;83.86
70214;DHT22;60138;55.808;37.078;2024-01-27T13:26:44;-2.51;83.87
70214;DHT22;60138;55.808;37.078;2024-01-27T13:29:10;-2.56;83.78
70214;DHT22;60138;55.808;37.078;2024-01-27T13:31:36;-2.57;83.87
70214;DHT22;60138;55.808;37.078;2024-01-27T13:34:02;-2.53;83.86
70214;DHT22;60138;55.808;37.078;2024-01-27T13:36:28;-2.54;83.86
70214;DHT22;60138;55.808;37.078;2024-01-27T13:38:54;-2.58;83.85
70214;DHT22;60138;55.808;37.078;2024-01-27T13:41:20;-2.57;83.90
70214;DHT22;60138;55.808;37.078;2024-01-27T13:43:45;-2.56;83.87
70214;DHT22;60138;55.808;37.078;2024-01-27T13:46:11;-2.54;83.88
70214;DHT22;60138;55.808;37.078;2024-01-27T13:48:37;-2.54;83.89
70214;DHT22;60138;55.808;37.078;2024-01-27T13:51:04;-2.54;83.84
70214;DHT22;60138;55.808;37.078;2024-01-27T13:53:29;-2.54;83.90
70214;DHT22;60138;55.808;37.078;2024-01-27T13:55:55;-2.51;83.90
70214;DHT22;60138;55.808;37.078;2024-01-27T13:58:21;-2.47;83.90
70214;DHT22;60138;55.808;37.078;2024-01-27T14:00:47;-2.45;83.85
70214;DHT22;60138;55.808;37.078;2024-01-27T14:03:13;-2.46;83.91
70214;DHT22;60138;55.808;37.078;2024-01-27T14:05:39;-2.45;83.87
70214;DHT22;60138;55.808;37.078;2024-01-27T14:08:05;-2.41;83.89
70214;DHT22;60138;55.808;37.078;2024-01-27T14:10:32;-2.41;83.87
70214;DHT22;60138;55.808;37.078;2024-01-27T14:12:58;-2.41;83.85
70214;DHT22;60138;55.808;37.078;2024-01-27T14:15:24;-2.38;83.87
70214;DHT22;60138;55.808;37.078;2024-01-27T14:17:49;-2.38;83.80
70214;DHT22;60138;55.808;37.078;2024-01-27T14:20:15;-2.45;83.81
70214;DHT22;60138;55.808;37.078;2024-01-27T14:22:43;-2.47;83.83
70214;DHT22;60138;55.808;37.078;2024-01-27T14:25:09;-2.43;83.84
70214;DHT22;60138;55.808;37.078;2024-01-27T14:27:35;-2.45;83.78
70214;DHT22;60138;55.808;37.078;2024-01-27T14:30:01;-2.50;83.84
70214;DHT22;60138;55.808;37.078;2024-01-27T14:32:27;-2.60;83.82
70214;DHT22;60138;55.808;37.078;2024-01-27T14:34:53;-2.65;83.85
70214;DHT22;60138;55.808;37.078;2024-01-27T14:37:19;-2.72;83.89
70214;DHT22;60138;55.808;37.078;2024-01-27T14:39:45;-2.76;83.94
70214;DHT22;60138;55.808;37.078;2024-01-27T14:42:12;-2.82;83.88
70214;DHT22;60138;55.808;37.078;2024-01-27T14:44:39;-2.89;83.91
70214;DHT22;60138;55.808;37.078;2024-01-27T14:47:05;-2.90;83.95
70214;DHT22;60138;55.808;37.078;2024-01-27T14:49:31;-2.93;83.95
70214;DHT22;60138;55.808;37.078;2024-01-27T14:52:02;-3.01;83.84
70214;DHT22;60138;55.808;37.078;2024-01-27T14:54:36;-3.04;83.83
70214;DHT22;60138;55.808;37.078;2024-01-27T14:57:03;-3.06;83.83
70214;DHT22;60138;55.808;37.078;2024-01-27T14:59:29;-3.06;83.78
70214;DHT22;60138;55.808;37.078;2024-01-27T15:01:55;-3.05;83.74
70214;DHT22;60138;55.808;37.078;2024-01-27T15:04:21;-3.05;83.77
70214;DHT22;60138;55.808;37.078;2024-01-27T15:06:47;-3.06;83.69
70214;DHT22;60138;55.808;37.078;2024-01-27T15:09:12;-3.09;83.66